createdAt,value
2019-01-11T00:01:07.950Z,0
2019-01-11T00:02:17.363Z,0
2019-01-11T00:03:26.781Z,0
2019-01-11T00:04:36.211Z,0
2019-01-11T00:05:45.634Z,0
2019-01-11T00:06:55.058Z,0
2019-01-11T00:08:04.743Z,0
2019-01-11T00:09:14.414Z,0
2019-01-11T00:10:24.078Z,0
2019-01-11T00:11:33.743Z,0
2019-01-11T00:12:43.180Z,0
2019-01-11T00:13:52.853Z,0
2019-01-11T00:15:02.543Z,0
2019-01-11T00:16:12.210Z,0
2019-01-11T00:17:21.900Z,0
2019-01-11T00:18:31.574Z,0
2019-01-11T00:19:41.503Z,0
2019-01-11T00:20:50.922Z,0
2019-01-11T00:22:00.591Z,0
2019-01-11T00:23:10.931Z,0
2019-01-11T00:24:20.971Z,0
2019-01-11T00:25:30.392Z,0
2019-01-11T00:26:39.815Z,0
2019-01-11T00:27:49.241Z,0
2019-01-11T00:28:58.911Z,0
2019-01-11T00:30:08.824Z,0
2019-01-11T00:31:18.490Z,0
2019-01-11T00:32:27.665Z,0
2019-01-11T00:33:37.083Z,0
2019-01-11T00:34:46.503Z,0
2019-01-11T00:35:55.922Z,0
2019-01-11T00:37:05.596Z,0
2019-01-11T00:38:15.517Z,0
2019-01-11T00:39:25.190Z,0
2019-01-11T00:40:34.851Z,0
2019-01-11T00:41:44.272Z,0
2019-01-11T00:42:54.191Z,0
2019-01-11T00:44:04.106Z,0
2019-01-11T00:45:13.787Z,0
2019-01-11T00:46:23.214Z,0
2019-01-11T00:47:33.133Z,0
2019-01-11T00:48:42.559Z,0
2019-01-11T00:49:52.237Z,0
2019-01-11T00:51:01.925Z,0
2019-01-11T00:52:11.600Z,0
2019-01-11T00:53:20.768Z,0
2019-01-11T00:54:30.190Z,0
2019-01-11T00:55:39.860Z,0
2019-01-11T00:56:49.532Z,0
2019-01-11T00:57:59.459Z,0
2019-01-11T00:59:09.127Z,0
2019-01-11T01:00:19.046Z,0
2019-01-11T01:01:28.721Z,0
2019-01-11T01:02:38.744Z,0
2019-01-11T01:03:48.665Z,0
2019-01-11T01:04:58.347Z,0
2019-01-11T01:06:07.768Z,0
2019-01-11T01:07:17.193Z,0
2019-01-11T01:08:32.688Z,0
2019-01-11T01:09:42.617Z,0
2019-01-11T01:10:52.052Z,0
2019-01-11T01:12:01.219Z,0
2019-01-11T01:13:10.887Z,0
2019-01-11T01:14:20.055Z,0
2019-01-11T01:15:29.728Z,0
2019-01-11T01:16:39.394Z,0
2019-01-11T01:17:49.319Z,0
2019-01-11T01:18:58.743Z,0
2019-01-11T01:20:08.661Z,0
2019-01-11T01:21:18.580Z,0
2019-01-11T01:22:27.749Z,0
2019-01-11T01:23:37.420Z,0
2019-01-11T01:24:46.842Z,0
2019-01-11T01:25:56.509Z,0
2019-01-11T01:27:06.466Z,0
2019-01-11T01:28:15.883Z,0
2019-01-11T01:29:25.807Z,0
2019-01-11T01:30:35.477Z,0
2019-01-11T01:31:45.397Z,0
2019-01-11T01:32:55.311Z,0
2019-01-11T01:34:04.738Z,0
2019-01-11T01:35:14.665Z,0
2019-01-11T01:36:24.383Z,0
2019-01-11T01:37:35.083Z,0
2019-01-11T01:38:44.498Z,0
2019-01-11T01:39:53.920Z,0
2019-01-11T01:41:03.846Z,0
2019-01-11T01:42:13.769Z,0
2019-01-11T01:43:23.443Z,0
2019-01-11T01:44:33.114Z,0
2019-01-11T01:45:42.783Z,0
2019-01-11T01:46:52.698Z,0
2019-01-11T01:48:02.372Z,0
2019-01-11T01:49:12.303Z,0
2019-01-11T01:50:21.724Z,0
2019-01-11T01:51:31.642Z,0
2019-01-11T01:52:40.812Z,0
2019-01-11T01:53:50.522Z,0
2019-01-11T01:55:00.198Z,0
2019-01-11T01:56:09.876Z,0
2019-01-11T01:57:19.047Z,0
2019-01-11T01:58:28.727Z,0
2019-01-11T01:59:38.402Z,0
2019-01-11T02:00:47.822Z,0
2019-01-11T02:01:57.738Z,0
2019-01-11T02:03:07.167Z,0
2019-01-11T02:04:16.596Z,0
2019-01-11T02:05:26.268Z,0
2019-01-11T02:06:35.688Z,0
2019-01-11T02:07:44.857Z,0
2019-01-11T02:08:54.280Z,0
2019-01-11T02:10:03.966Z,0
2019-01-11T02:11:13.678Z,0
2019-01-11T02:12:23.110Z,0
2019-01-11T02:13:32.535Z,0
2019-01-11T02:14:42.459Z,0
2019-01-11T02:15:51.890Z,0
2019-01-11T02:17:01.808Z,0
2019-01-11T02:18:11.735Z,0
2019-01-11T02:24:50.506Z,0
2019-01-11T02:28:03.531Z,0
2019-01-11T02:29:12.955Z,0
2019-01-11T02:30:22.647Z,0
2019-01-11T02:31:31.832Z,0
2019-01-11T02:32:41.265Z,0
2019-01-11T02:33:50.941Z,0
2019-01-11T02:35:00.858Z,0
2019-01-11T02:36:10.281Z,0
2019-01-11T02:37:19.951Z,0
2019-01-11T02:38:29.878Z,0
2019-01-11T02:39:39.779Z,0
2019-01-11T02:40:49.469Z,0
2019-01-11T02:41:59.138Z,0
2019-01-11T02:43:09.076Z,0
2019-01-11T02:44:18.504Z,0
2019-01-11T02:45:28.173Z,0
2019-01-11T02:46:37.847Z,0
2019-01-11T02:47:47.765Z,0
2019-01-11T02:48:57.442Z,0
2019-01-11T02:50:06.881Z,0
2019-01-11T02:51:16.306Z,0
2019-01-11T02:52:25.997Z,0
2019-01-11T02:53:35.917Z,0
2019-01-11T02:54:45.343Z,0
2019-01-11T02:55:55.288Z,0
2019-01-11T02:57:05.217Z,0
2019-01-11T02:58:14.888Z,0
2019-01-11T02:59:24.558Z,0
2019-01-11T03:00:34.490Z,0
2019-01-11T03:01:44.183Z,0
2019-01-11T03:02:54.117Z,0
2019-01-11T03:04:04.035Z,0
2019-01-11T03:05:13.974Z,0
2019-01-11T03:06:23.659Z,0
2019-01-11T03:07:33.579Z,0
2019-01-11T03:08:43.510Z,0
2019-01-11T03:09:53.201Z,0
2019-01-11T03:11:03.126Z,0
2019-01-11T03:12:12.332Z,0
2019-01-11T03:13:22.262Z,0
2019-01-11T03:14:31.431Z,0
2019-01-11T03:15:41.100Z,0
2019-01-11T03:16:51.017Z,0
2019-01-11T03:18:00.683Z,0
2019-01-11T03:19:10.356Z,0
2019-01-11T03:20:20.038Z,0
2019-01-11T03:21:29.717Z,0
2019-01-11T03:22:39.135Z,0
2019-01-11T03:23:49.063Z,0
2019-01-11T03:24:58.731Z,0
2019-01-11T03:26:08.678Z,0
2019-01-11T03:27:18.346Z,0
2019-01-11T03:28:28.260Z,0
2019-01-11T03:29:39.506Z,0
2019-01-11T03:30:49.203Z,0
2019-01-11T03:31:59.146Z,0
2019-01-11T03:33:09.127Z,0
2019-01-11T03:34:18.885Z,0
2019-01-11T03:35:28.803Z,0
2019-01-11T03:36:38.477Z,0
2019-01-11T03:37:47.903Z,0
2019-01-11T03:38:57.582Z,0
2019-01-11T03:40:07.514Z,0
2019-01-11T03:41:17.185Z,0
2019-01-11T03:42:26.613Z,0
2019-01-11T03:43:36.550Z,0
2019-01-11T03:44:46.256Z,0
2019-01-11T03:45:56.191Z,0
2019-01-11T03:47:06.113Z,0
2019-01-11T03:48:16.039Z,0
2019-01-11T03:49:25.500Z,0
2019-01-11T03:50:35.445Z,0
2019-01-11T03:51:45.379Z,0
2019-01-11T03:52:55.308Z,0
2019-01-11T03:54:04.991Z,0
2019-01-11T03:55:14.914Z,0
2019-01-11T03:56:24.360Z,0
2019-01-11T03:57:34.026Z,0
2019-01-11T03:58:43.235Z,0
2019-01-11T03:59:52.906Z,0
2019-01-11T04:01:02.591Z,0
2019-01-11T04:02:12.277Z,0
2019-01-11T04:03:21.955Z,0
2019-01-11T04:04:31.636Z,0
2019-01-11T04:05:41.566Z,0
2019-01-11T04:06:51.240Z,0
2019-01-11T04:08:00.157Z,0
2019-01-11T04:09:09.590Z,0
2019-01-11T04:10:19.260Z,0
2019-01-11T04:11:28.680Z,0
2019-01-11T04:12:38.364Z,0
2019-01-11T04:13:48.282Z,0
2019-01-11T04:14:57.705Z,0
2019-01-11T04:16:07.781Z,0
2019-01-11T04:17:17.706Z,0
2019-01-11T04:18:27.626Z,0
2019-01-11T04:19:37.315Z,0
2019-01-11T04:20:46.738Z,0
2019-01-11T04:21:56.157Z,0
2019-01-11T04:23:06.077Z,0
2019-01-11T04:24:15.516Z,0
2019-01-11T04:25:25.194Z,0
2019-01-11T04:26:34.369Z,0
2019-01-11T04:27:44.294Z,0
2019-01-11T04:28:53.727Z,0
2019-01-11T04:30:03.164Z,0
2019-01-11T04:33:36.046Z,0
2019-01-11T04:34:45.480Z,0
2019-01-11T04:35:54.914Z,0
2019-01-11T04:37:04.593Z,0
2019-01-11T04:38:14.524Z,0
2019-01-11T04:39:23.952Z,0
2019-01-11T04:40:40.735Z,0
2019-01-11T04:41:50.675Z,0
2019-01-11T04:43:00.601Z,0
2019-01-11T04:44:10.038Z,0
2019-01-11T04:45:20.012Z,0
2019-01-11T04:46:29.934Z,0
2019-01-11T04:47:39.631Z,0
2019-01-11T04:48:49.318Z,0
2019-01-11T04:49:58.764Z,0
2019-01-11T04:51:08.446Z,0
2019-01-11T04:52:17.898Z,0
2019-01-11T04:53:27.578Z,0
2019-01-11T04:54:37.248Z,0
2019-01-11T04:55:46.918Z,0
2019-01-11T04:56:56.344Z,0
2019-01-11T04:58:06.759Z,0
2019-01-11T04:59:16.325Z,0
2019-01-11T05:00:26.015Z,0
2019-01-11T05:01:35.732Z,0
2019-01-11T05:02:45.445Z,0
2019-01-11T05:03:55.393Z,0
2019-01-11T05:05:05.317Z,0
2019-01-11T05:06:15.245Z,0
2019-01-11T05:07:25.170Z,0
2019-01-11T05:08:35.086Z,0
2019-01-11T05:09:44.756Z,0
2019-01-11T05:10:54.690Z,0
2019-01-11T05:12:04.611Z,0
2019-01-11T05:13:14.542Z,0
2019-01-11T05:14:24.470Z,0
2019-01-11T05:15:34.140Z,0
2019-01-11T05:16:46.549Z,0
2019-01-11T05:17:55.979Z,0
2019-01-11T05:19:05.911Z,0
2019-01-11T05:20:21.241Z,0
2019-01-11T05:21:30.913Z,0
2019-01-11T05:22:40.588Z,0
2019-01-11T05:23:50.518Z,0
2019-01-11T05:25:00.444Z,0
2019-01-11T05:26:10.115Z,0
2019-01-11T05:27:19.540Z,0
2019-01-11T05:28:28.962Z,0
2019-01-11T05:29:38.895Z,0
2019-01-11T05:30:48.315Z,0
2019-01-11T05:31:57.991Z,0
2019-01-11T05:33:07.903Z,0
2019-01-11T05:34:17.579Z,0
2019-01-11T05:35:27.270Z,0
2019-01-11T05:36:36.937Z,0
2019-01-11T05:37:46.404Z,0
2019-01-11T05:38:56.332Z,0
2019-01-11T05:40:06.255Z,0
2019-01-11T05:41:15.431Z,0
2019-01-11T05:42:24.847Z,0
2019-01-11T05:43:33.765Z,0
2019-01-11T05:44:43.710Z,0
2019-01-11T05:45:53.631Z,0
2019-01-11T05:47:02.807Z,0
2019-01-11T05:48:12.478Z,0
2019-01-11T05:49:22.144Z,0
2019-01-11T05:50:31.835Z,0
2019-01-11T05:51:41.282Z,0
2019-01-11T05:52:51.010Z,0
2019-01-11T05:54:00.686Z,0
2019-01-11T05:55:10.376Z,0
2019-01-11T05:56:20.307Z,0
2019-01-11T05:57:29.982Z,0
2019-01-11T05:58:39.655Z,0
2019-01-11T05:59:49.578Z,0
2019-01-11T06:00:58.752Z,0
2019-01-11T06:02:08.681Z,0
2019-01-11T06:03:18.358Z,0
2019-01-11T06:04:28.287Z,0
2019-01-11T06:05:38.236Z,0
2019-01-11T06:06:47.908Z,0
2019-01-11T06:07:57.842Z,0
2019-01-11T06:09:07.776Z,0
2019-01-11T06:10:17.469Z,0
2019-01-11T06:11:27.140Z,0
2019-01-11T06:12:36.563Z,0
2019-01-11T06:13:46.233Z,0
2019-01-11T06:14:55.925Z,0
2019-01-11T06:16:05.101Z,0
2019-01-11T06:17:14.779Z,0
2019-01-11T06:18:24.209Z,0
2019-01-11T06:19:33.635Z,0
2019-01-11T06:20:43.313Z,0
2019-01-11T06:21:52.740Z,0
2019-01-11T06:23:02.155Z,0
2019-01-11T06:24:11.821Z,0
2019-01-11T06:25:21.529Z,0
2019-01-11T06:26:30.945Z,0
2019-01-11T06:27:40.123Z,0
2019-01-11T06:28:49.287Z,0
2019-01-11T06:29:58.474Z,0
2019-01-11T06:31:08.141Z,0
2019-01-11T06:32:17.813Z,0
2019-01-11T06:33:27.007Z,0
2019-01-11T06:34:36.928Z,0
2019-01-11T06:35:46.857Z,0
2019-01-11T06:36:56.531Z,0
2019-01-11T06:38:05.711Z,0
2019-01-11T06:39:16.338Z,0
2019-01-11T06:40:26.043Z,0
2019-01-11T06:41:35.965Z,0
2019-01-11T06:42:45.890Z,0
2019-01-11T06:43:55.571Z,0
2019-01-11T06:45:05.244Z,0
2019-01-11T06:46:15.164Z,0
2019-01-11T06:47:25.675Z,0
2019-01-11T06:48:35.595Z,0
2019-01-11T06:49:45.020Z,0
2019-01-11T06:50:54.953Z,0
2019-01-11T06:52:04.132Z,0
2019-01-11T06:53:13.800Z,0
2019-01-11T06:54:22.974Z,0
2019-01-11T06:55:32.395Z,0
2019-01-11T06:56:42.317Z,0
2019-01-11T06:57:51.739Z,0
2019-01-11T06:59:01.428Z,0
2019-01-11T07:00:11.100Z,0
2019-01-11T07:01:20.520Z,0
2019-01-11T07:02:30.450Z,0
2019-01-11T07:03:40.287Z,4
2019-01-11T07:04:50.236Z,4
2019-01-11T07:06:00.189Z,4
2019-01-11T07:07:09.862Z,0
2019-01-11T07:08:19.786Z,4
2019-01-11T07:09:29.200Z,4
2019-01-11T07:10:38.621Z,4
2019-01-11T07:11:48.290Z,8
2019-01-11T07:12:57.717Z,8
2019-01-11T07:14:07.405Z,12
2019-01-11T07:15:17.083Z,12
2019-01-11T07:16:27.007Z,16
2019-01-11T07:17:36.425Z,20
2019-01-11T07:18:46.102Z,24
2019-01-11T07:19:55.790Z,24
2019-01-11T07:21:05.461Z,28
2019-01-11T07:22:14.886Z,32
2019-01-11T07:23:24.549Z,36
2019-01-11T07:24:34.217Z,36
2019-01-11T07:25:43.630Z,44
2019-01-11T07:26:53.347Z,44
2019-01-11T07:28:03.013Z,48
2019-01-11T07:29:12.685Z,56
2019-01-11T07:30:22.603Z,56
2019-01-11T07:31:31.774Z,60
2019-01-11T07:32:41.441Z,64
2019-01-11T07:33:50.616Z,72
2019-01-11T07:35:00.298Z,84
2019-01-11T07:36:10.010Z,104
2019-01-11T07:37:19.430Z,124
2019-01-11T07:38:29.122Z,124
2019-01-11T07:39:38.289Z,128
2019-01-11T07:40:47.707Z,132
2019-01-11T07:41:57.390Z,124
2019-01-11T07:43:07.066Z,144
2019-01-11T07:44:16.989Z,132
2019-01-11T07:45:26.910Z,120
2019-01-11T07:46:36.582Z,128
2019-01-11T07:47:46.005Z,120
2019-01-11T07:48:55.689Z,132
2019-01-11T07:50:05.361Z,148
2019-01-11T07:51:15.034Z,156
2019-01-11T07:52:23.955Z,160
2019-01-11T07:53:33.874Z,172
2019-01-11T07:54:43.307Z,156
2019-01-11T07:55:52.491Z,160
2019-01-11T07:57:02.166Z,172
2019-01-11T07:58:12.626Z,184
2019-01-11T07:59:22.554Z,168
2019-01-11T08:00:32.223Z,152
2019-01-11T08:01:41.402Z,160
2019-01-11T08:02:50.828Z,176
2019-01-11T08:04:00.755Z,172
2019-01-11T08:05:10.683Z,188
2019-01-11T08:06:19.859Z,200
2019-01-11T08:07:29.790Z,200
2019-01-11T08:08:38.976Z,200
2019-01-11T08:09:48.401Z,196
2019-01-11T08:10:58.327Z,208
2019-01-11T08:12:08.003Z,216
2019-01-11T08:13:17.686Z,228
2019-01-11T08:14:27.107Z,232
2019-01-11T08:15:37.038Z,196
2019-01-11T08:16:46.954Z,196
2019-01-11T08:17:56.884Z,184
2019-01-11T08:19:06.320Z,204
2019-01-11T08:20:16.011Z,228
2019-01-11T08:21:25.438Z,248
2019-01-11T08:22:35.356Z,268
2019-01-11T08:23:45.277Z,300
2019-01-11T08:24:54.983Z,324
2019-01-11T08:26:04.456Z,340
2019-01-11T08:27:14.395Z,340
2019-01-11T08:28:23.825Z,340
2019-01-11T08:29:33.755Z,416
2019-01-11T08:30:43.183Z,472
2019-01-11T08:31:53.108Z,492
2019-01-11T08:33:03.034Z,612
2019-01-11T08:34:12.709Z,580
2019-01-11T08:35:22.395Z,680
2019-01-11T08:36:32.076Z,664
2019-01-11T08:37:41.763Z,620
2019-01-11T08:38:50.941Z,652
2019-01-11T08:40:00.859Z,808
2019-01-11T08:41:10.534Z,780
2019-01-11T08:42:19.712Z,852
2019-01-11T08:43:29.389Z,808
2019-01-11T08:44:39.060Z,880
2019-01-11T08:45:48.730Z,856
2019-01-11T08:46:58.411Z,780
2019-01-11T08:48:08.333Z,832
2019-01-11T08:49:18.110Z,1000
2019-01-11T08:50:27.530Z,880
2019-01-11T08:51:36.974Z,904
2019-01-11T08:52:46.394Z,844
2019-01-11T08:53:56.077Z,852
2019-01-11T08:55:05.293Z,984
2019-01-11T08:56:15.471Z,968
2019-01-11T08:57:25.141Z,892
2019-01-11T08:58:34.816Z,848
2019-01-11T08:59:44.486Z,720
2019-01-11T09:00:53.905Z,548
2019-01-11T09:02:03.591Z,696
2019-01-11T09:03:13.517Z,860
2019-01-11T09:04:23.449Z,796
2019-01-11T09:05:32.893Z,776
2019-01-11T09:06:42.567Z,844
2019-01-11T09:07:52.242Z,844
2019-01-11T09:09:02.160Z,852
2019-01-11T09:10:11.839Z,948
2019-01-11T09:11:21.013Z,944
2019-01-11T09:12:30.940Z,1208
2019-01-11T09:13:40.858Z,1516
2019-01-11T09:14:50.785Z,1860
2019-01-11T09:16:00.462Z,2176
2019-01-11T09:17:09.891Z,3000
2019-01-11T09:18:19.818Z,2884
2019-01-11T09:19:29.752Z,2400
2019-01-11T09:20:39.675Z,2084
2019-01-11T09:21:49.354Z,1796
2019-01-11T09:22:59.033Z,2052
2019-01-11T09:24:08.709Z,2644
2019-01-11T09:25:18.385Z,2712
2019-01-11T09:26:28.061Z,2584
2019-01-11T09:27:37.480Z,2332
2019-01-11T09:28:47.394Z,2612
2019-01-11T09:29:57.074Z,2476
2019-01-11T09:31:06.747Z,2596
2019-01-11T09:32:16.174Z,2292
2019-01-11T09:33:27.659Z,2244
2019-01-11T09:34:37.337Z,2196
2019-01-11T09:35:47.025Z,1896
2019-01-11T09:36:57.067Z,1916
2019-01-11T09:38:07.061Z,1832
2019-01-11T09:39:16.861Z,1648
2019-01-11T09:40:26.528Z,1620
2019-01-11T09:41:36.491Z,1616
2019-01-11T09:42:46.381Z,1500
2019-01-11T09:43:56.057Z,1356
2019-01-11T09:45:05.482Z,1352
2019-01-11T09:46:14.910Z,1464
2019-01-11T09:47:24.379Z,1680
2019-01-11T09:48:34.087Z,1920
2019-01-11T09:49:43.511Z,2428
2019-01-11T09:50:52.694Z,2804
2019-01-11T09:52:02.379Z,2568
2019-01-11T09:53:11.802Z,2724
2019-01-11T09:54:21.482Z,2872
2019-01-11T09:55:30.928Z,2816
2019-01-11T09:56:40.863Z,2476
2019-01-11T09:57:50.537Z,1792
2019-01-11T09:59:00.457Z,1456
2019-01-11T10:00:09.970Z,1412
2019-01-11T10:01:19.640Z,1948
2019-01-11T10:02:29.497Z,2108
2019-01-11T10:03:39.495Z,1604
2019-01-11T10:04:49.167Z,1736
2019-01-11T10:05:58.844Z,1552
2019-01-11T10:07:08.768Z,1576
2019-01-11T10:08:18.444Z,1664
2019-01-11T10:09:27.867Z,1908
2019-01-11T10:10:37.787Z,2496
2019-01-11T10:11:47.216Z,2324
2019-01-11T10:12:56.938Z,2400
2019-01-11T10:14:06.106Z,2252
2019-01-11T10:15:15.791Z,2296
2019-01-11T10:16:26.197Z,2364
2019-01-11T10:17:35.877Z,2312
2019-01-11T10:18:45.312Z,2428
2019-01-11T10:19:54.989Z,2184
2019-01-11T10:21:04.410Z,2096
2019-01-11T10:22:14.097Z,2112
2019-01-11T10:23:24.011Z,2116
2019-01-11T10:24:33.678Z,2292
2019-01-11T10:25:43.605Z,2136
2019-01-11T10:26:53.531Z,1820
2019-01-11T10:28:03.457Z,2048
2019-01-11T10:29:13.119Z,1732
2019-01-11T10:30:22.811Z,1840
2019-01-11T10:31:32.478Z,1972
2019-01-11T10:32:42.151Z,1828
2019-01-11T10:33:51.824Z,2176
2019-01-11T10:35:01.744Z,1648
2019-01-11T10:36:11.665Z,1784
2019-01-11T10:37:20.834Z,2020
2019-01-11T10:38:30.263Z,2312
2019-01-11T10:39:40.197Z,2444
2019-01-11T10:40:50.134Z,3164
2019-01-11T10:41:59.808Z,2356
2019-01-11T10:43:09.491Z,2512
2019-01-11T10:44:19.169Z,2948
2019-01-11T10:45:28.854Z,2544
2019-01-11T10:46:38.282Z,3268
2019-01-11T10:47:48.002Z,3724
2019-01-11T10:48:57.928Z,2960
2019-01-11T10:50:07.356Z,3200
2019-01-11T10:51:19.024Z,3204
2019-01-11T10:52:28.570Z,3448
2019-01-11T10:53:38.255Z,2668
2019-01-11T10:54:47.951Z,3280
2019-01-11T10:55:57.626Z,4212
2019-01-11T10:57:07.328Z,3256
2019-01-11T10:58:17.001Z,2816
2019-01-11T10:59:26.961Z,2664
2019-01-11T11:00:37.922Z,2056
2019-01-11T11:01:47.600Z,2368
2019-01-11T11:02:57.521Z,1744
2019-01-11T11:04:06.698Z,1980
2019-01-11T11:05:15.872Z,2012
2019-01-11T11:06:25.795Z,3268
2019-01-11T11:07:35.465Z,3368
2019-01-11T11:08:44.392Z,2872
2019-01-11T11:09:53.822Z,2724
2019-01-11T11:11:03.495Z,3352
2019-01-11T11:12:13.171Z,2624
2019-01-11T11:13:23.098Z,1848
2019-01-11T11:14:32.547Z,2248
2019-01-11T11:15:42.221Z,2512
2019-01-11T11:16:51.893Z,2656
2019-01-11T11:18:01.597Z,3232
2019-01-11T11:19:11.277Z,3108
2019-01-11T11:20:20.711Z,3200
2019-01-11T11:21:34.626Z,2932
2019-01-11T11:22:44.444Z,2540
2019-01-11T11:23:58.633Z,2144
2019-01-11T11:25:08.307Z,1928
2019-01-11T11:26:17.980Z,2280
2019-01-11T11:27:27.912Z,2428
2019-01-11T11:28:37.850Z,2116
2019-01-11T11:29:47.777Z,2396
2019-01-11T11:30:59.579Z,2252
2019-01-11T11:32:09.259Z,1996
2019-01-11T11:33:18.935Z,2312
2019-01-11T11:34:28.628Z,2420
2019-01-11T11:35:38.321Z,2024
2019-01-11T11:36:47.757Z,2688
2019-01-11T11:37:56.942Z,3440
2019-01-11T11:39:06.629Z,2952
2019-01-11T11:40:15.811Z,2184
2019-01-11T11:41:25.237Z,1924
2019-01-11T11:42:34.681Z,2024
2019-01-11T11:43:44.363Z,2472
2019-01-11T11:44:53.792Z,1760
2019-01-11T11:46:03.470Z,1564
2019-01-11T11:47:12.655Z,2296
2019-01-11T11:48:22.084Z,2280
2019-01-11T11:49:31.512Z,1936
2019-01-11T11:50:41.466Z,1692
2019-01-11T11:51:50.917Z,2300
2019-01-11T11:53:00.354Z,2456
2019-01-11T11:54:09.281Z,3116
2019-01-11T11:55:19.209Z,3084
2019-01-11T11:56:28.401Z,2772
2019-01-11T11:57:38.085Z,2384
2019-01-11T11:58:47.512Z,2684
2019-01-11T11:59:57.190Z,1804
2019-01-11T12:01:06.876Z,1632
2019-01-11T12:02:21.742Z,1884
2019-01-11T12:03:30.925Z,1884
2019-01-11T12:04:40.362Z,1700
2019-01-11T12:05:49.797Z,1980
2019-01-11T12:06:59.232Z,2792
2019-01-11T12:08:09.157Z,2904
2019-01-11T12:09:18.836Z,3388
2019-01-11T12:10:28.044Z,3056
2019-01-11T12:11:37.726Z,2272
2019-01-11T12:12:46.925Z,2192
2019-01-11T12:13:56.349Z,1956
2019-01-11T12:15:06.294Z,1520
2019-01-11T12:16:15.471Z,1656
2019-01-11T12:17:25.399Z,1580
2019-01-11T12:18:34.823Z,1732
2019-01-11T12:19:44.498Z,1656
2019-01-11T12:20:54.211Z,1708
2019-01-11T12:22:08.848Z,1696
2019-01-11T12:23:18.529Z,1436
2019-01-11T12:24:28.203Z,1448
2019-01-11T12:25:38.124Z,2592
2019-01-11T12:26:47.050Z,2464
2019-01-11T12:27:56.874Z,2888
2019-01-11T12:29:06.794Z,3836
2019-01-11T12:30:16.724Z,3328
2019-01-11T12:31:26.649Z,4504
2019-01-11T12:32:36.082Z,4124
2019-01-11T12:33:45.513Z,3492
2019-01-11T12:34:55.434Z,3672
2019-01-11T12:36:05.107Z,3624
2019-01-11T12:37:15.033Z,4340
2019-01-11T12:38:24.705Z,5940
2019-01-11T12:39:34.382Z,5660
2019-01-11T12:40:44.059Z,5332
2019-01-11T12:41:53.733Z,5012
2019-01-11T12:43:03.660Z,3432
2019-01-11T12:44:13.340Z,2000
2019-01-11T12:45:22.768Z,2296
2019-01-11T12:46:32.710Z,2712
2019-01-11T12:47:42.645Z,3636
2019-01-11T12:48:52.576Z,2884
2019-01-11T12:50:02.254Z,3144
2019-01-11T12:51:11.935Z,3016
2019-01-11T12:52:21.360Z,2996
2019-01-11T12:53:30.782Z,3856
2019-01-11T12:54:40.218Z,3652
2019-01-11T12:55:49.644Z,4168
2019-01-11T12:56:59.320Z,4464
2019-01-11T12:58:08.753Z,4496
2019-01-11T12:59:18.446Z,4144
2019-01-11T13:00:28.547Z,3032
2019-01-11T13:01:37.740Z,2884
2019-01-11T13:02:47.174Z,2348
2019-01-11T13:03:56.855Z,2948
2019-01-11T13:05:06.541Z,2800
2019-01-11T13:06:16.223Z,3380
2019-01-11T13:07:25.917Z,2672
2019-01-11T13:08:35.592Z,1900
2019-01-11T13:09:45.263Z,1948
2019-01-11T13:10:55.184Z,1968
2019-01-11T13:12:04.862Z,1744
2019-01-11T13:13:14.296Z,2640
2019-01-11T13:14:23.981Z,2432
2019-01-11T13:15:33.419Z,1956
2019-01-11T13:16:43.117Z,2420
2019-01-11T13:17:52.834Z,1992
2019-01-11T13:19:02.014Z,1808
2019-01-11T13:20:11.988Z,1376
2019-01-11T13:21:21.922Z,2064
2019-01-11T13:22:31.849Z,3648
2019-01-11T13:23:41.828Z,3172
2019-01-11T13:24:51.754Z,3164
2019-01-11T13:26:01.430Z,3128
2019-01-11T13:27:11.362Z,2052
2019-01-11T13:28:21.033Z,2448
2019-01-11T13:29:30.457Z,2720
2019-01-11T13:30:40.394Z,2924
2019-01-11T13:31:49.826Z,3164
2019-01-11T13:32:59.508Z,2632
2019-01-11T13:34:08.696Z,2180
2019-01-11T13:35:18.127Z,2340
2019-01-11T13:36:27.855Z,2124
2019-01-11T13:37:37.598Z,2964
2019-01-11T13:38:47.521Z,2132
2019-01-11T13:39:56.950Z,2204
2019-01-11T13:41:06.875Z,2456
2019-01-11T13:42:16.296Z,2700
2019-01-11T13:43:25.974Z,2376
2019-01-11T13:44:35.413Z,2440
2019-01-11T13:45:45.089Z,2368
2019-01-11T13:46:54.764Z,2028
2019-01-11T13:48:04.710Z,2252
2019-01-11T13:49:14.144Z,2276
2019-01-11T13:50:23.571Z,2452
2019-01-11T13:51:33.490Z,2496
2019-01-11T13:52:43.174Z,2244
2019-01-11T13:53:53.098Z,2348
2019-01-11T13:55:02.619Z,2388
2019-01-11T13:56:12.301Z,2448
2019-01-11T13:57:21.736Z,2548
2019-01-11T13:58:31.670Z,2256
2019-01-11T13:59:46.367Z,2188
2019-01-11T14:00:56.296Z,1912
2019-01-11T14:02:05.723Z,2040
2019-01-11T14:03:15.655Z,2008
2019-01-11T14:04:24.848Z,1872
2019-01-11T14:05:34.526Z,1868
2019-01-11T14:06:44.507Z,2012
2019-01-11T14:07:54.225Z,2128
2019-01-11T14:09:03.907Z,1976
2019-01-11T14:10:13.585Z,2376
2019-01-11T14:11:22.764Z,2532
2019-01-11T14:12:32.187Z,2384
2019-01-11T14:13:42.112Z,2464
2019-01-11T14:14:51.544Z,2456
2019-01-11T14:16:00.974Z,2568
2019-01-11T14:17:10.410Z,2612
2019-01-11T14:18:19.839Z,2696
2019-01-11T14:19:29.264Z,2648
2019-01-11T14:20:38.944Z,2352
2019-01-11T14:21:48.630Z,2196
2019-01-11T14:22:58.356Z,2228
2019-01-11T14:24:08.283Z,2168
2019-01-11T14:25:19.321Z,2308
2019-01-11T14:26:28.746Z,2256
2019-01-11T14:27:38.432Z,2192
2019-01-11T14:28:47.861Z,2256
2019-01-11T14:29:57.286Z,2232
2019-01-11T14:31:07.203Z,2180
2019-01-11T14:32:16.642Z,2264
2019-01-11T14:33:26.322Z,2252
2019-01-11T14:34:35.998Z,2240
2019-01-11T14:35:45.725Z,2228
2019-01-11T14:36:55.477Z,2192
2019-01-11T14:38:05.220Z,2136
2019-01-11T14:39:14.902Z,2224
2019-01-11T14:40:24.634Z,2240
2019-01-11T14:41:34.311Z,1684
2019-01-11T14:42:44.250Z,1164
2019-01-11T14:43:53.181Z,864
2019-01-11T14:45:03.143Z,560
2019-01-11T14:46:12.822Z,584
2019-01-11T14:47:22.255Z,448
2019-01-11T14:48:31.939Z,288
2019-01-11T14:49:41.868Z,324
2019-01-11T14:50:51.799Z,488
2019-01-11T14:52:01.730Z,576
2019-01-11T14:53:11.664Z,500
2019-01-11T14:54:21.090Z,376
2019-01-11T14:55:30.520Z,304
2019-01-11T14:56:40.448Z,476
2019-01-11T14:57:49.888Z,444
2019-01-11T14:58:59.902Z,292
2019-01-11T15:00:09.591Z,416
2019-01-11T15:01:19.265Z,408
2019-01-11T15:02:28.686Z,576
2019-01-11T15:03:38.112Z,668
2019-01-11T15:04:47.536Z,620
2019-01-11T15:05:57.465Z,696
2019-01-11T15:07:07.174Z,836
2019-01-11T15:08:16.605Z,844
2019-01-11T15:09:25.777Z,748
2019-01-11T15:10:35.698Z,596
2019-01-11T15:11:45.154Z,504
2019-01-11T15:12:54.843Z,492
2019-01-11T15:14:04.351Z,668
2019-01-11T15:15:13.779Z,736
2019-01-11T15:16:23.706Z,824
2019-01-11T15:17:33.386Z,688
2019-01-11T15:18:43.301Z,524
2019-01-11T15:19:53.159Z,400
2019-01-11T15:21:03.308Z,392
2019-01-11T15:22:12.933Z,312
2019-01-11T15:23:22.867Z,272
2019-01-11T15:24:32.794Z,188
2019-01-11T15:25:42.828Z,116
2019-01-11T15:26:51.754Z,120
2019-01-11T15:28:01.441Z,112
2019-01-11T15:29:10.862Z,136
2019-01-11T15:30:20.288Z,124
2019-01-11T15:31:30.214Z,124
2019-01-11T15:32:40.139Z,124
2019-01-11T15:33:50.072Z,100
2019-01-11T15:35:00.014Z,124
2019-01-11T15:36:09.448Z,112
2019-01-11T15:37:18.878Z,100
2019-01-11T15:38:28.304Z,100
2019-01-11T15:39:37.733Z,92
2019-01-11T15:40:47.202Z,80
2019-01-11T15:41:56.874Z,56
2019-01-11T15:43:06.792Z,44
2019-01-11T15:44:16.723Z,44
2019-01-11T15:45:26.147Z,40
2019-01-11T15:46:36.074Z,24
2019-01-11T15:47:45.746Z,28
2019-01-11T15:48:55.171Z,20
2019-01-11T15:50:04.847Z,12
2019-01-11T15:51:14.767Z,12
2019-01-11T15:52:23.944Z,8
2019-01-11T15:53:35.095Z,8
2019-01-11T15:54:45.021Z,8
2019-01-11T15:55:54.542Z,8
2019-01-11T15:57:04.230Z,8
2019-01-11T15:58:13.914Z,4
2019-01-11T15:59:23.588Z,4
2019-01-11T16:00:33.269Z,4
2019-01-11T16:01:42.947Z,0
2019-01-11T16:02:52.889Z,4
2019-01-11T16:04:03.071Z,0
2019-01-11T16:05:12.745Z,4
2019-01-11T16:06:22.563Z,4
2019-01-11T16:07:31.978Z,4
2019-01-11T16:08:42.143Z,0
2019-01-11T16:09:52.170Z,0
2019-01-11T16:11:01.883Z,0
2019-01-11T16:12:11.638Z,0
2019-01-11T16:13:21.557Z,0
2019-01-11T16:14:31.246Z,0
2019-01-11T16:15:41.170Z,0
2019-01-11T16:16:51.099Z,0
2019-01-11T16:18:00.520Z,0
2019-01-11T16:19:10.441Z,0
2019-01-11T16:20:20.130Z,0
2019-01-11T16:21:29.804Z,0
2019-01-11T16:22:44.136Z,0
2019-01-11T16:23:53.819Z,0
2019-01-11T16:25:03.245Z,0
2019-01-11T16:26:12.916Z,0
2019-01-11T16:27:22.584Z,0
2019-01-11T16:28:32.007Z,0
2019-01-11T16:29:41.929Z,0
2019-01-11T16:30:51.162Z,0
2019-01-11T16:32:01.949Z,0